Time;durP1;ratioP1;P1;durP2;ratioP2;P2;SDS_P1;SDS_P2;PMS_P1;PMS_P2;Temp;Humidity;BMP_temperature;BMP_pressure;BME280_temperature;BME280_humidity;BME280_pressure;Samples;Min_cycle;Max_cycle;Signal;HPM_P1;HPM_P2
2023/01/05 00:00:51;;;;;;;;;;;;;;;-143.48;81.17;118439.88;5056484;28;19951;-29
2023/01/05 00:03:17;;;;;;;;;;;;;;;-143.48;82.28;118439.88;5055637;28;20346;-28
2023/01/05 00:05:42;;;;;;;;;;;;;;;-143.48;81.54;118439.88;5055662;28;19918;-29
2023/01/05 00:08:07;;;;;;;;;;;;;;;-143.48;82.31;118439.88;5055514;28;20317;-29
2023/01/05 00:24:16;;;;;;;;;;;;;;;-143.48;81.91;118439.88;5055999;28;19916;-29
2023/01/05 00:26:41;;;;;;;;;;;;;;;-143.48;81.88;118439.88;5055511;28;19912;-29
2023/01/05 00:29:07;;;;;;;;;;;;;;;-143.48;81.99;118439.88;5055574;28;19920;-29
2023/01/05 00:31:32;;;;;;;;;;;;;;;-143.48;82.46;118439.88;5055247;28;19959;-28
2023/01/05 00:33:57;;;;;;;;;;;;;;;-143.48;82.62;118439.88;5055145;28;19908;-29
2023/01/05 00:36:22;;;;;;;;;;;;;;;-143.48;81.60;118439.88;5055701;28;20002;-29
2023/01/05 00:38:47;;;;;;;;;;;;;;;-143.48;81.58;118439.88;5055385;28;19909;-29
2023/01/05 00:41:12;;;;;;;;;;;;;;;-143.48;81.84;118439.88;5055040;28;19913;-29
2023/01/05 00:43:38;;;;;;;;;;;;;;;-143.48;81.99;118439.88;5054914;28;19963;-29
2023/01/05 00:46:03;;;;;;;;;;;;;;;-143.48;82.97;118439.88;5055237;28;19942;-29
2023/01/05 00:48:28;;;;;;;;;;;;;;;-143.48;82.74;118439.88;5054837;28;20413;-29
2023/01/05 00:50:53;;;;;;;;;;;;;;;-143.48;81.81;118439.88;5053877;28;19909;-29
2023/01/05 00:53:18;;;;;;;;;;;;;;;-143.48;84.16;118439.88;5053801;28;19905;-29
2023/01/05 00:55:43;;;;;;;;;;;;;;;-143.48;83.21;118439.88;5054303;28;19909;-29
2023/01/05 00:58:09;;;;;;;;;;;;;;;-143.48;82.75;118439.88;5054757;28;20347;-29
2023/01/05 01:00:34;;;;;;;;;;;;;;;-143.48;82.21;118439.88;5055252;28;19962;-29
2023/01/05 01:02:59;;;;;;;;;;;;;;;-143.48;81.60;118439.88;5054496;28;20275;-28
2023/01/05 01:05:24;;;;;;;;;;;;;;;-143.48;82.05;118439.88;5054615;28;19913;-29
2023/01/05 01:07:50;;;;;;;;;;;;;;;-143.48;81.94;118439.88;5054833;28;19908;-28
2023/01/05 01:10:15;;;;;;;;;;;;;;;-143.48;81.65;118439.88;5054474;28;19909;-29
2023/01/05 01:12:40;;;;;;;;;;;;;;;-143.48;83.19;118439.88;5055087;28;19909;-29
2023/01/05 01:15:06;;;;;;;;;;;;;;;-143.48;82.57;118439.88;5054730;28;19914;-29
2023/01/05 01:17:32;;;;;;;;;;;;;;;-143.48;83.48;118439.88;5054618;28;20358;-29
2023/01/05 01:19:57;;;;;;;;;;;;;;;-143.48;82.57;118439.88;5054298;28;19909;-29
2023/01/05 01:22:22;;;;;;;;;;;;;;;-143.48;83.26;118439.88;5054198;28;19917;-29
2023/01/05 01:24:47;;;;;;;;;;;;;;;-143.48;83.22;118439.88;5054527;28;19908;-29
2023/01/05 01:27:13;;;;;;;;;;;;;;;-143.48;83.11;118439.88;5054246;28;19912;-29
2023/01/05 01:29:38;;;;;;;;;;;;;;;-143.48;82.65;118439.88;5036407;28;19916;-29
2023/01/05 01:32:03;;;;;;;;;;;;;;;-143.48;83.05;118439.88;5054078;28;19940;-29
2023/01/05 01:34:28;;;;;;;;;;;;;;;-143.48;83.16;118439.88;5054917;28;19923;-29
2023/01/05 01:36:55;;;;;;;;;;;;;;;-143.48;83.04;118439.88;5054408;28;20270;-29
2023/01/05 01:39:20;;;;;;;;;;;;;;;-143.48;81.99;118439.88;5054310;28;20351;-29
2023/01/05 01:41:46;;;;;;;;;;;;;;;-143.48;82.18;118439.88;5053900;28;20003;-29
2023/01/05 01:44:29;;;;;;;;;;;;;;;-143.48;82.49;118439.88;5054211;28;19908;-29
2023/01/05 01:46:55;;;;;;;;;;;;;;;-143.48;83.10;118439.88;5054194;28;20058;-29
2023/01/05 01:49:20;;;;;;;;;;;;;;;-143.48;82.13;118439.88;5036936;28;20331;-29
2023/01/05 01:51:46;;;;;;;;;;;;;;;-143.48;83.35;118439.88;5053947;28;19909;-29
2023/01/05 01:54:14;;;;;;;;;;;;;;;-143.48;83.34;118439.88;5053832;28;19909;-29
2023/01/05 01:56:44;;;;;;;;;;;;;;;-143.48;82.77;118439.88;5053703;28;19909;-29
2023/01/05 01:59:10;;;;;;;;;;;;;;;-143.48;82.98;118439.88;5053846;28;19909;-29
2023/01/05 02:01:35;;;;;;;;;;;;;;;-143.48;83.30;118439.88;5035675;28;19917;-29
2023/01/05 02:04:02;;;;;;;;;;;;;;;-143.48;84.05;118439.88;5053450;28;19913;-29
2023/01/05 02:06:27;;;;;;;;;;;;;;;-143.48;83.76;118439.88;5054132;28;19915;-29
2023/01/05 02:08:52;;;;;;;;;;;;;;;-143.48;85.05;118439.88;5053695;28;19991;-29
2023/01/05 02:11:17;;;;;;;;;;;;;;;-143.48;84.91;118439.88;5054224;28;20366;-29
2023/01/05 02:14:01;;;;;;;;;;;;;;;-143.48;85.96;118439.88;5054052;28;19962;-29
2023/01/05 02:16:37;;;;;;;;;;;;;;;-143.48;86.25;118439.88;5054096;28;20374;-29
2023/01/05 02:19:21;;;;;;;;;;;;;;;-143.48;85.73;118439.88;5053858;28;20444;-29
2023/01/05 02:22:04;;;;;;;;;;;;;;;-143.48;85.29;118439.88;5053591;28;19919;-29
2023/01/05 02:24:32;;;;;;;;;;;;;;;-143.48;85.14;118439.88;5053501;28;20359;-29
2023/01/05 02:27:16;;;;;;;;;;;;;;;-143.48;85.47;118439.88;5053710;28;19916;-29
2023/01/05 02:30:07;;;;;;;;;;;;;;;-143.48;85.51;118439.88;5053633;28;19913;-29
2023/01/05 02:32:38;;;;;;;;;;;;;;;-143.48;86.09;118439.88;5053687;28;20011;-29
2023/01/05 02:35:12;;;;;;;;;;;;;;;-143.48;86.01;118439.88;5053416;28;19955;-29
2023/01/05 02:37:44;;;;;;;;;;;;;;;-143.48;86.37;118439.88;5053832;28;19908;-29
2023/01/05 02:40:18;;;;;;;;;;;;;;;-143.48;85.87;118439.88;5053663;28;19932;-29
2023/01/05 02:42:45;;;;;;;;;;;;;;;-143.48;85.80;118439.88;5053227;28;19994;-29
2023/01/05 02:45:10;;;;;;;;;;;;;;;-143.48;86.77;118439.88;5053363;28;19917;-29
2023/01/05 02:47:42;;;;;;;;;;;;;;;-143.48;85.99;118439.88;5053263;28;19912;-29
2023/01/05 02:50:11;;;;;;;;;;;;;;;-143.48;86.12;118439.88;5035391;28;19909;-29
2023/01/05 02:52:38;;;;;;;;;;;;;;;-143.48;86.09;118439.88;5053171;28;19915;-29
2023/01/05 02:55:07;;;;;;;;;;;;;;;-143.48;86.68;118439.88;5053231;28;19946;-29
2023/01/05 02:57:46;;;;;;;;;;;;;;;-143.48;86.79;118439.88;5053238;28;20007;-29
2023/01/05 03:00:14;;;;;;;;;;;;;;;-143.48;86.44;118439.88;5053391;28;19912;-29
2023/01/05 03:02:43;;;;;;;;;;;;;;;-143.48;87.23;118439.88;5053041;28;19917;-29
2023/01/05 03:05:13;;;;;;;;;;;;;;;-143.48;86.54;118439.88;5053156;28;20271;-29
2023/01/05 03:07:41;;;;;;;;;;;;;;;-143.48;86.48;118439.88;5053126;28;20007;-29
2023/01/05 03:13:40;;;;;;;;;;;;;;;-143.48;86.28;118439.88;5053077;28;20325;-29
2023/01/05 03:15:42;;;;;;;;;;;;;;;-143.48;86.97;118439.88;5056833;28;19931;-29
2023/01/05 03:18:13;;;;;;;;;;;;;;;-143.48;86.94;118439.88;5056559;28;19915;-29
2023/01/05 03:20:40;;;;;;;;;;;;;;;-143.48;86.10;118439.88;5057184;28;19908;-29
2023/01/05 03:37:46;;;;;;;;;;;;;;;-143.48;86.16;118439.88;5056937;28;20038;-29
2023/01/05 03:40:23;;;;;;;;;;;;;;;-143.48;86.90;118439.88;5052504;28;19908;-28
2023/01/05 03:42:48;;;;;;;;;;;;;;;-143.48;86.64;118439.88;5056168;28;19919;-29
2023/01/05 03:45:14;;;;;;;;;;;;;;;-143.48;86.94;118439.88;5056183;28;19999;-29
2023/01/05 03:47:40;;;;;;;;;;;;;;;-143.48;86.54;118439.88;5056329;28;19908;-29
2023/01/05 03:50:05;;;;;;;;;;;;;;;-143.48;86.31;118439.88;5056006;28;19916;-29
2023/01/05 03:52:30;;;;;;;;;;;;;;;-143.48;87.49;118439.88;5055909;28;19932;-29
2023/01/05 03:54:56;;;;;;;;;;;;;;;-143.48;87.12;118439.88;5056406;28;19916;-29
2023/01/05 03:57:21;;;;;;;;;;;;;;;-143.48;87.59;118439.88;5055895;28;19955;-29
2023/01/05 03:59:46;;;;;;;;;;;;;;;-143.48;87.22;118439.88;5056426;28;19915;-28
2023/01/05 04:02:11;;;;;;;;;;;;;;;-143.48;86.77;118439.88;5056109;28;19924;-29
2023/01/05 04:04:36;;;;;;;;;;;;;;;-143.48;86.60;118439.88;5055774;28;19908;-29
2023/01/05 04:07:01;;;;;;;;;;;;;;;-143.48;87.22;118439.88;5055958;28;19916;-29
2023/01/05 04:09:27;;;;;;;;;;;;;;;-143.48;87.09;118439.88;5055692;28;20441;-29
2023/01/05 04:11:52;;;;;;;;;;;;;;;-143.48;87.57;118439.88;5055660;28;19912;-29
2023/01/05 04:14:17;;;;;;;;;;;;;;;-143.48;87.13;118439.88;5055638;28;19991;-29
2023/01/05 04:16:42;;;;;;;;;;;;;;;-143.48;86.72;118439.88;5055528;28;19966;-29
2023/01/05 04:19:08;;;;;;;;;;;;;;;-143.48;86.84;118439.88;5056047;28;19916;-29
2023/01/05 04:21:33;;;;;;;;;;;;;;;-143.48;87.45;118439.88;5055713;28;19908;-29
2023/01/05 04:23:59;;;;;;;;;;;;;;;-143.48;87.05;118439.88;5055447;28;20294;-28
2023/01/05 04:26:24;;;;;;;;;;;;;;;-143.48;86.87;118439.88;5055267;28;19924;-29
2023/01/05 04:28:49;;;;;;;;;;;;;;;-143.48;87.05;118439.88;5055295;28;19908;-29
2023/01/05 04:31:14;;;;;;;;;;;;;;;-143.48;87.52;118439.88;5055861;28;19931;-29
2023/01/05 04:33:39;;;;;;;;;;;;;;;-143.48;87.15;118439.88;5055500;28;20272;-29
2023/01/05 04:36:05;;;;;;;;;;;;;;;-143.48;87.49;118439.88;5055402;28;19912;-29
2023/01/05 04:38:30;;;;;;;;;;;;;;;-143.48;86.72;118439.88;5055355;28;19947;-29
2023/01/05 04:40:56;;;;;;;;;;;;;;;-143.48;86.66;118439.88;5055329;28;19958;-29
2023/01/05 04:43:21;;;;;;;;;;;;;;;-143.48;87.06;118439.88;5055312;28;19947;-29
2023/01/05 04:45:47;;;;;;;;;;;;;;;-143.48;87.29;118439.88;5055248;28;19919;-29
2023/01/05 04:48:13;;;;;;;;;;;;;;;-143.48;86.87;118439.88;5055001;28;20333;-29
2023/01/05 04:50:38;;;;;;;;;;;;;;;-143.48;86.59;118439.88;5054786;28;19932;-29
2023/01/05 04:53:03;;;;;;;;;;;;;;;-143.48;86.61;118439.88;5054837;28;19905;-29
2023/01/05 04:55:28;;;;;;;;;;;;;;;-143.48;86.99;118439.88;5036878;28;19908;-29
2023/01/05 04:57:53;;;;;;;;;;;;;;;-143.48;87.24;118439.88;5055327;28;19943;-29
2023/01/05 05:00:19;;;;;;;;;;;;;;;-143.48;86.40;118439.88;5036812;28;19963;-29
2023/01/05 05:02:44;;;;;;;;;;;;;;;-143.48;86.62;118439.88;5054375;28;20363;-29
2023/01/05 05:05:09;;;;;;;;;;;;;;;-143.48;87.18;118439.88;5054890;28;20310;-29
2023/01/05 05:07:34;;;;;;;;;;;;;;;-143.48;87.29;118439.88;5054538;28;20314;-29
2023/01/05 05:10:00;;;;;;;;;;;;;;;-143.48;86.85;118439.88;5054531;28;19908;-29
2023/01/05 05:12:25;;;;;;;;;;;;;;;-143.48;87.31;118439.88;5054395;28;19959;-29
2023/01/05 05:14:50;;;;;;;;;;;;;;;-143.48;87.57;118439.88;5054483;28;19954;-29
2023/01/05 05:17:16;;;;;;;;;;;;;;;-143.48;88.56;118439.88;5054443;28;20278;-29
2023/01/05 05:19:41;;;;;;;;;;;;;;;-143.48;87.50;118439.88;5054903;28;20015;-29
2023/01/05 05:22:06;;;;;;;;;;;;;;;-143.48;87.68;118439.88;5054267;28;19935;-29
2023/01/05 05:24:32;;;;;;;;;;;;;;;-143.48;87.81;118439.88;5054231;28;19987;-29
2023/01/05 05:26:57;;;;;;;;;;;;;;;-143.48;88.22;118439.88;5055028;28;20366;-29
2023/01/05 05:29:23;;;;;;;;;;;;;;;-143.48;87.98;118439.88;5054457;28;19913;-29
2023/01/05 05:31:48;;;;;;;;;;;;;;;-143.48;88.08;118439.88;5054413;28;19913;-29
2023/01/05 05:34:13;;;;;;;;;;;;;;;-143.48;88.04;118439.88;5054329;28;19978;-29
2023/01/05 05:36:38;;;;;;;;;;;;;;;-143.48;87.96;118439.88;5053738;28;19915;-29
2023/01/05 05:39:04;;;;;;;;;;;;;;;-143.48;88.48;118439.88;5053970;28;19915;-29
2023/01/05 05:41:29;;;;;;;;;;;;;;;-143.48;88.00;118439.88;5053979;28;19908;-29
2023/01/05 05:43:59;;;;;;;;;;;;;;;-143.48;88.89;118439.88;5054140;28;19913;-29
2023/01/05 05:46:24;;;;;;;;;;;;;;;-143.48;88.17;118439.88;5054179;28;20271;-29
2023/01/05 05:48:49;;;;;;;;;;;;;;;-143.48;88.67;118439.88;5053907;28;19909;-29
2023/01/05 05:51:15;;;;;;;;;;;;;;;-143.48;88.47;118439.88;5054204;28;19954;-29
2023/01/05 05:53:40;;;;;;;;;;;;;;;-143.48;88.94;118439.88;5053847;28;19909;-29
2023/01/05 05:56:05;;;;;;;;;;;;;;;-143.48;89.13;118439.88;5054328;28;19915;-29
2023/01/05 05:58:30;;;;;;;;;;;;;;;-143.48;89.17;118439.88;5054288;28;20018;-29
2023/01/05 06:00:56;;;;;;;;;;;;;;;-143.48;89.17;118439.88;5053767;28;19916;-29
2023/01/05 06:03:21;;;;;;;;;;;;;;;-143.48;89.06;118439.88;5053630;28;20286;-29
2023/01/05 06:05:46;;;;;;;;;;;;;;;-143.48;89.52;118439.88;5054192;28;19999;-29
2023/01/05 06:08:12;;;;;;;;;;;;;;;-143.48;89.81;118439.88;5053930;28;20268;-29
2023/01/05 06:10:37;;;;;;;;;;;;;;;-143.48;89.49;118439.88;5053672;28;19915;-28
2023/01/05 06:13:03;;;;;;;;;;;;;;;-143.48;89.31;118439.88;5054184;28;20382;-29
2023/01/05 06:15:28;;;;;;;;;;;;;;;-143.48;88.62;118439.88;5054175;28;19909;-29
2023/01/05 06:17:53;;;;;;;;;;;;;;;-143.48;89.05;118439.88;5053855;28;20343;-29
2023/01/05 06:20:19;;;;;;;;;;;;;;;-143.48;88.61;118439.88;5053849;28;19955;-29
2023/01/05 06:22:44;;;;;;;;;;;;;;;-143.48;89.05;118439.88;5054006;28;19913;-29
2023/01/05 06:25:09;;;;;;;;;;;;;;;-143.48;89.00;118439.88;5053595;28;19908;-28
2023/01/05 06:27:35;;;;;;;;;;;;;;;-143.48;88.58;118439.88;5053410;28;19909;-28
2023/01/05 06:30:00;;;;;;;;;;;;;;;-143.48;88.67;118439.88;5053416;28;19909;-29
2023/01/05 06:32:25;;;;;;;;;;;;;;;-143.48;88.59;118439.88;5053483;28;19909;-28
2023/01/05 06:34:50;;;;;;;;;;;;;;;-143.48;88.83;118439.88;5053989;28;19915;-29
2023/01/05 06:37:16;;;;;;;;;;;;;;;-143.48;88.61;118439.88;5053712;28;19908;-28
2023/01/05 06:39:41;;;;;;;;;;;;;;;-143.48;88.79;118439.88;5053383;28;19909;-28
2023/01/05 06:42:06;;;;;;;;;;;;;;;-143.48;88.24;118439.88;5053240;28;19912;-29
2023/01/05 06:44:31;;;;;;;;;;;;;;;-143.48;88.43;118439.88;5053833;28;19908;-28
2023/01/05 06:46:56;;;;;;;;;;;;;;;-143.48;89.26;118439.88;5053334;28;19908;-29
2023/01/05 06:49:22;;;;;;;;;;;;;;;-143.48;89.26;118439.88;5054564;28;20536;-28
2023/01/05 06:51:47;;;;;;;;;;;;;;;-143.48;89.10;118439.88;5057203;28;20310;-29
2023/01/05 06:54:12;;;;;;;;;;;;;;;-143.48;88.90;118439.88;5057609;28;19951;-28
2023/01/05 06:56:37;;;;;;;;;;;;;;;-143.48;88.83;118439.88;5057515;28;20260;-28
2023/01/05 06:59:03;;;;;;;;;;;;;;;-143.48;88.90;118439.88;5057197;28;19956;-28
2023/01/05 07:01:28;;;;;;;;;;;;;;;-143.48;89.37;118439.88;5056932;28;19909;-29
2023/01/05 07:03:53;;;;;;;;;;;;;;;-143.48;89.03;118439.88;5056791;28;19908;-28
2023/01/05 07:06:18;;;;;;;;;;;;;;;-143.48;89.17;118439.88;5056823;28;19909;-28
2023/01/05 07:08:43;;;;;;;;;;;;;;;-143.48;88.85;118439.88;5057110;28;19969;-28
2023/01/05 07:11:09;;;;;;;;;;;;;;;-143.48;88.65;118439.88;5056829;28;19917;-28
2023/01/05 07:13:34;;;;;;;;;;;;;;;-143.48;89.41;118439.88;5057165;28;19916;-28
2023/01/05 07:15:59;;;;;;;;;;;;;;;-143.48;89.31;118439.88;5056911;28;19908;-28
2023/01/05 07:18:24;;;;;;;;;;;;;;;-143.48;88.88;118439.88;5056590;28;19959;-28
2023/01/05 07:20:49;;;;;;;;;;;;;;;-143.48;89.11;118439.88;5056863;28;19909;-28
2023/01/05 07:23:15;;;;;;;;;;;;;;;-143.48;88.79;118439.88;5056721;28;19939;-28
2023/01/05 07:25:40;;;;;;;;;;;;;;;-143.48;88.66;118439.88;5056448;28;19944;-28
2023/01/05 07:28:05;;;;;;;;;;;;;;;-143.48;88.82;118439.88;5056407;28;20399;-28
2023/01/05 07:30:30;;;;;;;;;;;;;;;-143.48;88.31;118439.88;5056181;28;19909;-29
2023/01/05 07:32:57;;;;;;;;;;;;;;;-143.48;89.03;118439.88;5056219;28;19913;-28
2023/01/05 07:35:22;;;;;;;;;;;;;;;-143.48;88.54;118439.88;5056396;28;20003;-29
2023/01/05 07:37:47;;;;;;;;;;;;;;;-143.48;88.75;118439.88;5056112;28;19958;-28
2023/01/05 07:40:13;;;;;;;;;;;;;;;-143.48;88.76;118439.88;5056128;28;19966;-29
2023/01/05 07:42:38;;;;;;;;;;;;;;;-143.48;88.09;118439.88;5056211;28;20279;-29
2023/01/05 07:45:03;;;;;;;;;;;;;;;-143.48;89.24;118439.88;5038051;28;19909;-29
2023/01/05 07:47:30;;;;;;;;;;;;;;;-143.48;88.54;118439.88;5055709;28;19909;-29
2023/01/05 07:49:55;;;;;;;;;;;;;;;-143.48;88.90;118439.88;5056086;28;19909;-29
2023/01/05 07:52:21;;;;;;;;;;;;;;;-143.48;88.21;118439.88;5055753;28;19915;-29
2023/01/05 07:54:46;;;;;;;;;;;;;;;-143.48;87.18;118439.88;5055752;28;19909;-29
2023/01/05 07:57:11;;;;;;;;;;;;;;;-143.48;87.07;118439.88;5056236;28;19958;-29
2023/01/05 07:59:36;;;;;;;;;;;;;;;-143.48;88.48;118439.88;5055360;28;20359;-29
2023/01/05 08:02:01;;;;;;;;;;;;;;;-143.48;87.70;118439.88;5055739;28;19916;-29
2023/01/05 08:04:27;;;;;;;;;;;;;;;-143.48;87.91;118439.88;5055645;28;19931;-29
2023/01/05 08:06:52;;;;;;;;;;;;;;;-143.48;87.97;118439.88;5055535;28;19912;-29
2023/01/05 08:12:01;;;;;;;;;;;;;;;-143.48;87.62;118439.88;5056453;28;19935;-29
2023/01/05 08:14:26;;;;;;;;;;;;;;;-143.48;87.58;118439.88;5055587;28;19908;-29
2023/01/05 08:16:51;;;;;;;;;;;;;;;-143.48;87.27;118439.88;5055936;28;19978;-29
2023/01/05 08:19:16;;;;;;;;;;;;;;;-143.48;88.15;118439.88;5055431;28;20326;-29
2023/01/05 08:21:41;;;;;;;;;;;;;;;-143.48;86.95;118439.88;5055903;28;19916;-29
2023/01/05 08:24:07;;;;;;;;;;;;;;;-143.48;86.80;118439.88;5055262;28;19909;-29
2023/01/05 08:26:32;;;;;;;;;;;;;;;-143.48;87.15;118439.88;5056115;28;19912;-29
2023/01/05 08:28:57;;;;;;;;;;;;;;;-143.48;87.59;118439.88;5055475;28;19909;-29
2023/01/05 08:31:24;;;;;;;;;;;;;;;-143.48;88.09;118439.88;5055450;28;20306;-29
2023/01/05 08:33:50;;;;;;;;;;;;;;;-143.48;87.31;118439.88;5055679;28;19909;-28
2023/01/05 08:36:18;;;;;;;;;;;;;;;-143.48;87.26;118439.88;5055084;28;20275;-28
2023/01/05 08:38:47;;;;;;;;;;;;;;;-143.48;87.37;118439.88;5055094;28;19921;-29
2023/01/05 08:41:19;;;;;;;;;;;;;;;-143.48;86.70;118439.88;5054682;28;19915;-29
2023/01/05 08:43:49;;;;;;;;;;;;;;;-143.48;86.70;118439.88;5053879;28;19913;-29
2023/01/05 08:46:14;;;;;;;;;;;;;;;-143.48;87.70;118439.88;5054863;28;19909;-28
2023/01/05 08:48:39;;;;;;;;;;;;;;;-143.48;87.08;118439.88;5053407;28;19954;-28
2023/01/05 08:51:06;;;;;;;;;;;;;;;-143.48;86.42;118439.88;5052668;28;19939;-28
2023/01/05 08:53:31;;;;;;;;;;;;;;;-143.48;86.59;118439.88;5052925;28;20350;-28
2023/01/05 08:55:57;;;;;;;;;;;;;;;-143.48;86.74;118439.88;5052686;28;20008;-28
2023/01/05 08:58:22;;;;;;;;;;;;;;;-143.48;87.51;118439.88;5052611;28;19978;-29
2023/01/05 09:00:47;;;;;;;;;;;;;;;-143.48;87.42;118439.88;5052608;28;19930;-28
2023/01/05 09:03:12;;;;;;;;;;;;;;;-143.48;86.59;118439.88;5052741;28;20437;-28
2023/01/05 09:05:37;;;;;;;;;;;;;;;-143.48;86.77;118439.88;5055137;28;19916;-28
2023/01/05 09:08:03;;;;;;;;;;;;;;;-143.48;87.26;118439.88;5054746;28;20370;-28
2023/01/05 09:10:29;;;;;;;;;;;;;;;-143.48;86.70;118439.88;5054638;28;19908;-28
2023/01/05 09:12:54;;;;;;;;;;;;;;;-143.48;86.64;118439.88;5035577;28;19909;-28
2023/01/05 09:15:19;;;;;;;;;;;;;;;-143.48;86.37;118439.88;5054550;28;19912;-29
2023/01/05 09:17:44;;;;;;;;;;;;;;;-143.48;86.35;118439.88;5054659;28;20355;-28
2023/01/05 09:20:09;;;;;;;;;;;;;;;-143.48;86.27;118439.88;5054292;28;19908;-28
2023/01/05 09:22:35;;;;;;;;;;;;;;;-143.48;86.01;118439.88;5054486;28;19918;-28
2023/01/05 09:25:00;;;;;;;;;;;;;;;-143.48;86.69;118439.88;5054401;28;19909;-28
2023/01/05 09:27:25;;;;;;;;;;;;;;;-143.48;86.29;118439.88;5054180;28;20377;-28
2023/01/05 09:29:51;;;;;;;;;;;;;;;-143.48;85.78;118439.88;5054601;28;19909;-28
2023/01/05 09:32:16;;;;;;;;;;;;;;;-143.48;85.74;118439.88;5054082;28;20279;-28
2023/01/05 09:34:41;;;;;;;;;;;;;;;-143.48;85.56;118439.88;5035853;28;19908;-28
2023/01/05 09:37:07;;;;;;;;;;;;;;;-143.48;85.83;118439.88;5053818;28;19923;-28
2023/01/05 09:39:32;;;;;;;;;;;;;;;-143.48;85.88;118439.88;5054044;28;19912;-29
2023/01/05 09:41:59;;;;;;;;;;;;;;;-143.48;85.64;118439.88;5054186;28;19986;-29
2023/01/05 09:44:24;;;;;;;;;;;;;;;-143.48;85.46;118439.88;5054427;28;19952;-30
2023/01/05 09:46:50;;;;;;;;;;;;;;;-143.48;85.47;118439.88;5053795;28;20284;-28
2023/01/05 09:49:17;;;;;;;;;;;;;;;-143.48;85.91;118439.88;5054055;28;19940;-29
2023/01/05 09:51:43;;;;;;;;;;;;;;;-143.48;85.31;118439.88;5054120;28;19950;-29
2023/01/05 09:54:16;;;;;;;;;;;;;;;-143.48;86.09;118439.88;5054133;28;19909;-29
2023/01/05 09:56:43;;;;;;;;;;;;;;;-143.48;86.01;118439.88;5054028;28;20351;-29
2023/01/05 09:59:23;;;;;;;;;;;;;;;-143.48;85.64;118439.88;5053682;28;19917;-29
2023/01/05 10:01:49;;;;;;;;;;;;;;;-143.48;85.64;118439.88;5053566;28;20377;-29
2023/01/05 10:04:16;;;;;;;;;;;;;;;-143.48;85.78;118439.88;5053695;28;19912;-29
2023/01/05 10:06:43;;;;;;;;;;;;;;;-143.48;85.10;118439.88;5053636;28;19908;-29
2023/01/05 10:09:12;;;;;;;;;;;;;;;-143.48;85.53;118439.88;5053623;28;19909;-29
2023/01/05 10:15:00;;;;;;;;;;;;;;;-143.48;85.07;118439.88;5053657;28;19974;-29
2023/01/05 10:17:26;;;;;;;;;;;;;;;-143.48;84.96;118439.88;5053536;28;19947;-29
2023/01/05 10:19:52;;;;;;;;;;;;;;;-143.48;84.48;118439.88;5053980;28;20033;-29
2023/01/05 10:22:23;;;;;;;;;;;;;;;-143.48;83.44;118439.88;5035413;28;19908;-29
2023/01/05 10:25:07;;;;;;;;;;;;;;;-143.48;84.03;118439.88;5057484;28;20290;-29
2023/01/05 10:27:38;;;;;;;;;;;;;;;-143.48;84.55;118439.88;5057545;28;19916;-29
2023/01/05 10:30:23;;;;;;;;;;;;;;;-143.48;83.49;118439.88;5057566;28;19913;-29
2023/01/05 10:32:49;;;;;;;;;;;;;;;-143.48;85.21;118439.88;5056889;28;19909;-30
2023/01/05 10:35:14;;;;;;;;;;;;;;;-143.48;83.81;118439.88;5058088;28;19913;-29
2023/01/05 10:37:46;;;;;;;;;;;;;;;-143.48;83.66;118439.88;5057686;28;19908;-29
2023/01/05 10:40:11;;;;;;;;;;;;;;;-143.48;83.58;118439.88;5057329;28;19909;-29
2023/01/05 10:42:40;;;;;;;;;;;;;;;-143.48;84.08;118439.88;5057570;28;19908;-29
2023/01/05 10:45:10;;;;;;;;;;;;;;;-143.48;84.27;118439.88;5057594;28;19916;-29
2023/01/05 10:47:37;;;;;;;;;;;;;;;-143.48;84.13;118439.88;5057291;28;19916;-29
2023/01/05 10:50:16;;;;;;;;;;;;;;;-143.48;82.78;118439.88;5039698;28;19917;-29
2023/01/05 10:52:41;;;;;;;;;;;;;;;-143.48;82.97;118439.88;5057149;28;20367;-29
2023/01/05 10:55:11;;;;;;;;;;;;;;;-143.48;82.29;118439.88;5056959;28;19914;-29
2023/01/05 10:57:38;;;;;;;;;;;;;;;-143.48;82.81;118439.88;5056909;28;19909;-29
2023/01/05 11:00:08;;;;;;;;;;;;;;;-143.48;81.90;118439.88;5057519;28;20020;-30
2023/01/05 11:02:35;;;;;;;;;;;;;;;-143.48;83.40;118439.88;5056866;28;20406;-29
2023/01/05 11:05:02;;;;;;;;;;;;;;;-143.48;82.09;118439.88;5057425;28;20362;-29
2023/01/05 11:07:27;;;;;;;;;;;;;;;-143.48;81.55;118439.88;5056822;28;19909;-30
2023/01/05 11:09:53;;;;;;;;;;;;;;;-143.48;81.21;118439.88;5057092;28;19999;-29
2023/01/05 11:12:19;;;;;;;;;;;;;;;-143.48;81.62;118439.88;5056796;28;19909;-29
2023/01/05 11:14:48;;;;;;;;;;;;;;;-143.48;81.60;118439.88;5057595;28;20335;-30
2023/01/05 11:17:18;;;;;;;;;;;;;;;-143.48;80.21;118439.88;5056121;28;20290;-29
2023/01/05 11:19:46;;;;;;;;;;;;;;;-143.48;80.72;118439.88;5056821;28;20354;-29
2023/01/05 11:22:28;;;;;;;;;;;;;;;-143.48;80.97;118439.88;5056550;28;19912;-29
2023/01/05 11:24:53;;;;;;;;;;;;;;;-143.48;80.82;118439.88;5056589;28;20371;-30
2023/01/05 11:27:18;;;;;;;;;;;;;;;-143.48;80.95;118439.88;5056572;28;19999;-29
2023/01/05 11:29:43;;;;;;;;;;;;;;;-143.48;80.17;118439.88;5057068;28;19915;-29
2023/01/05 11:32:11;;;;;;;;;;;;;;;-143.48;79.58;118439.88;5056664;28;19909;-29
2023/01/05 11:34:42;;;;;;;;;;;;;;;-143.48;79.08;118439.88;5056331;28;20374;-30
2023/01/05 11:37:10;;;;;;;;;;;;;;;-143.48;78.76;118439.88;5056125;28;19912;-30
2023/01/05 11:39:41;;;;;;;;;;;;;;;-143.48;78.51;118439.88;5056785;28;20339;-29
2023/01/05 11:42:24;;;;;;;;;;;;;;;-143.48;79.72;118439.88;5056082;28;19913;-29
2023/01/05 11:44:54;;;;;;;;;;;;;;;-143.48;75.27;118439.88;5056141;28;19916;-29
2023/01/05 11:47:22;;;;;;;;;;;;;;;-143.48;75.35;118439.88;5056118;28;19913;-29
2023/01/05 11:49:48;;;;;;;;;;;;;;;-143.48;74.44;118439.88;5056618;28;19909;-29
2023/01/05 11:52:24;;;;;;;;;;;;;;;-143.48;75.27;118439.88;5056234;28;19932;-30
2023/01/05 11:54:49;;;;;;;;;;;;;;;-143.48;76.28;118439.88;5055925;28;20007;-29
2023/01/05 11:57:16;;;;;;;;;;;;;;;-143.48;75.14;118439.88;5056421;28;20339;-29
2023/01/05 11:59:43;;;;;;;;;;;;;;;-143.48;75.36;118439.88;5055763;28;19948;-29
2023/01/05 12:02:24;;;;;;;;;;;;;;;-143.48;73.65;118439.88;5056023;28;19967;-29
2023/01/05 12:04:57;;;;;;;;;;;;;;;-143.48;72.42;118439.88;5055769;28;19909;-29
2023/01/05 12:07:22;;;;;;;;;;;;;;;-143.48;72.97;118439.88;5055706;28;19916;-29
2023/01/05 12:09:57;;;;;;;;;;;;;;;-143.48;71.30;118439.88;5055618;28;19909;-29
2023/01/05 12:12:31;;;;;;;;;;;;;;;-143.48;69.54;118439.88;5055953;28;19923;-29
2023/01/05 12:15:15;;;;;;;;;;;;;;;-143.48;64.06;118439.88;5055551;28;19997;-30
2023/01/05 12:17:40;;;;;;;;;;;;;;;-143.48;64.39;118439.88;5056129;28;19912;-29
2023/01/05 12:20:24;;;;;;;;;;;;;;;-143.48;61.26;118439.88;5055455;28;20066;-29
2023/01/05 12:23:02;;;;;;;;;;;;;;;-143.48;59.37;118439.88;5055370;28;20356;-29
2023/01/05 12:25:33;;;;;;;;;;;;;;;-143.48;57.20;118439.88;5055560;28;19908;-29
2023/01/05 12:28:12;;;;;;;;;;;;;;;-143.48;58.97;118439.88;5055639;28;19908;-29
2023/01/05 12:30:49;;;;;;;;;;;;;;;-143.48;52.18;118439.88;5055307;28;20279;-29
2023/01/05 12:33:33;;;;;;;;;;;;;;;-143.48;51.63;118439.88;5037323;28;19999;-29
2023/01/05 12:36:15;;;;;;;;;;;;;;;-143.48;50.15;118439.88;5055783;28;19912;-29
2023/01/05 12:38:47;;;;;;;;;;;;;;;-143.48;50.12;118439.88;5055493;28;19909;-29
2023/01/05 12:41:12;;;;;;;;;;;;;;;-143.48;47.99;118439.88;5055386;28;19955;-29
2023/01/05 12:43:38;;;;;;;;;;;;;;;-143.48;48.06;118439.88;5055020;28;20351;-29
2023/01/05 12:46:12;;;;;;;;;;;;;;;-143.48;50.73;118439.88;5055649;28;20003;-29
2023/01/05 12:48:44;;;;;;;;;;;;;;;-143.48;53.58;118439.88;5055288;28;19909;-29
2023/01/05 12:51:09;;;;;;;;;;;;;;;-143.48;53.96;118439.88;5055417;28;19963;-29
2023/01/05 12:53:34;;;;;;;;;;;;;;;-143.48;51.80;118439.88;5055174;28;19940;-29
2023/01/05 12:56:18;;;;;;;;;;;;;;;-143.48;51.48;118439.88;5055342;28;19916;-29